createdAt,value
2019-01-25T00:00:24.101Z,929.37
2019-01-25T00:01:24.088Z,929.37
2019-01-25T00:02:24.075Z,929.36
2019-01-25T00:03:24.092Z,929.39
2019-01-25T00:04:24.049Z,929.38
2019-01-25T00:05:24.050Z,929.36
2019-01-25T00:06:24.026Z,929.37
2019-01-25T00:07:24.024Z,929.39
2019-01-25T00:08:24.021Z,929.31
2019-01-25T00:09:23.998Z,929.34
2019-01-25T00:10:23.984Z,929.35
2019-01-25T00:11:23.974Z,929.36
2019-01-25T00:12:23.959Z,929.32
2019-01-25T00:13:23.965Z,929.32
2019-01-25T00:14:23.938Z,929.30
2019-01-25T00:15:23.934Z,929.33
2019-01-25T00:16:23.920Z,929.35
2019-01-25T00:17:23.903Z,929.28
2019-01-25T00:18:23.912Z,929.28
2019-01-25T00:19:23.882Z,929.26
2019-01-25T00:20:23.874Z,929.30
2019-01-25T00:21:23.857Z,929.29
2019-01-25T00:22:23.864Z,929.27
2019-01-25T00:23:23.858Z,929.33
2019-01-25T00:24:23.828Z,929.31
2019-01-25T00:25:23.816Z,929.25
2019-01-25T00:26:23.800Z,929.32
2019-01-25T00:27:23.792Z,929.32
2019-01-25T00:28:23.799Z,929.30
2019-01-25T00:29:23.769Z,929.32
2019-01-25T00:30:23.758Z,929.30
2019-01-25T00:31:23.753Z,929.33
2019-01-25T00:32:23.742Z,929.37
2019-01-25T00:33:23.737Z,929.34
2019-01-25T00:34:23.720Z,929.36
2019-01-25T00:35:23.711Z,929.32
2019-01-25T00:36:23.723Z,929.35
2019-01-25T00:37:23.678Z,929.36
2019-01-25T00:38:23.690Z,929.35
2019-01-25T00:39:23.686Z,929.35
2019-01-25T00:40:23.649Z,929.36
2019-01-25T00:41:23.630Z,929.38
2019-01-25T00:42:23.620Z,929.34
2019-01-25T00:43:23.623Z,929.33
2019-01-25T00:44:23.604Z,929.38
2019-01-25T00:45:23.594Z,929.33
2019-01-25T00:46:23.584Z,929.29
2019-01-25T00:47:23.564Z,929.32
2019-01-25T00:48:23.854Z,929.31
2019-01-25T00:49:23.549Z,929.32
2019-01-25T00:50:23.529Z,929.30
2019-01-25T00:51:23.526Z,929.30
2019-01-25T00:52:23.507Z,929.35
2019-01-25T00:53:23.512Z,929.32
2019-01-25T00:54:23.504Z,929.34
2019-01-25T00:55:23.473Z,929.34
2019-01-25T00:56:23.461Z,929.33
2019-01-25T00:57:23.450Z,929.30
2019-01-25T00:58:23.441Z,929.31
2019-01-25T00:59:23.447Z,929.30
2019-01-25T01:00:23.422Z,929.34
2019-01-25T01:01:23.411Z,929.34
2019-01-25T01:02:23.395Z,929.36
2019-01-25T01:03:23.383Z,929.37
2019-01-25T01:04:23.393Z,929.42
2019-01-25T01:05:23.366Z,929.43
2019-01-25T01:06:23.349Z,929.43
2019-01-25T01:07:23.341Z,929.50
2019-01-25T01:08:23.333Z,929.50
2019-01-25T01:09:23.363Z,929.47
2019-01-25T01:10:23.306Z,929.47
2019-01-25T01:11:23.299Z,929.55
2019-01-25T01:12:23.283Z,929.56
2019-01-25T01:13:23.269Z,929.56
2019-01-25T01:14:23.293Z,929.53
2019-01-25T01:15:23.272Z,929.51
2019-01-25T01:16:23.267Z,929.58
2019-01-25T01:17:23.241Z,929.54
2019-01-25T01:18:23.216Z,929.53
2019-01-25T01:19:23.270Z,929.56
2019-01-25T01:20:23.208Z,929.52
2019-01-25T01:21:23.238Z,929.54
2019-01-25T01:22:23.176Z,929.58
2019-01-25T01:23:23.203Z,929.57
2019-01-25T01:24:23.258Z,929.59
2019-01-25T01:25:23.137Z,929.60
2019-01-25T01:26:23.116Z,929.58
2019-01-25T01:27:23.124Z,929.61
2019-01-25T01:28:23.107Z,929.63
2019-01-25T01:29:23.106Z,929.65
2019-01-25T01:30:23.093Z,929.64
2019-01-25T01:31:23.065Z,929.66
2019-01-25T01:32:23.061Z,929.66
2019-01-25T01:33:23.127Z,929.68
2019-01-25T01:34:23.042Z,929.71
2019-01-25T01:35:23.013Z,929.65
2019-01-25T01:36:23.004Z,929.62
2019-01-25T01:37:22.992Z,929.59
2019-01-25T01:38:22.978Z,929.59
2019-01-25T01:39:22.985Z,929.60
2019-01-25T01:40:22.966Z,929.61
2019-01-25T01:41:22.954Z,929.66
2019-01-25T01:42:22.934Z,929.67
2019-01-25T01:43:22.942Z,929.64
2019-01-25T01:44:22.928Z,929.64
2019-01-25T01:45:22.904Z,929.67
2019-01-25T01:46:22.889Z,929.69
2019-01-25T01:47:22.878Z,929.71
2019-01-25T01:48:22.869Z,929.70
2019-01-25T01:49:22.870Z,929.70
2019-01-25T01:50:22.857Z,929.71
2019-01-25T01:51:22.833Z,929.68
2019-01-25T01:52:22.819Z,929.72
2019-01-25T01:53:22.812Z,929.71
2019-01-25T01:54:22.832Z,929.69
2019-01-25T01:55:22.786Z,929.71
2019-01-25T01:56:22.785Z,929.70
2019-01-25T01:57:22.763Z,929.67
2019-01-25T01:58:22.752Z,929.68
2019-01-25T01:59:22.751Z,929.66
2019-01-25T02:00:22.751Z,929.67
2019-01-25T02:01:22.725Z,929.67
2019-01-25T02:02:22.713Z,929.68
2019-01-25T02:03:22.718Z,929.70
2019-01-25T02:04:22.689Z,929.70
2019-01-25T02:05:22.688Z,929.69
2019-01-25T02:06:22.659Z,929.74
2019-01-25T02:07:22.661Z,929.73
2019-01-25T02:08:22.637Z,929.73
2019-01-25T02:09:22.627Z,929.76
2019-01-25T02:10:29.010Z,929.71
2019-01-25T02:11:23.605Z,929.71
2019-01-25T02:12:22.602Z,929.75
2019-01-25T02:13:22.579Z,929.71
2019-01-25T02:14:22.572Z,929.71
2019-01-25T02:15:22.572Z,929.71
2019-01-25T02:16:22.549Z,929.68
2019-01-25T02:17:22.542Z,929.74
2019-01-25T02:18:22.548Z,929.73
2019-01-25T02:19:22.510Z,929.76
2019-01-25T02:20:22.515Z,929.74
2019-01-25T02:21:22.502Z,929.78
2019-01-25T02:22:22.478Z,929.76
2019-01-25T02:23:22.466Z,929.76
2019-01-25T02:24:22.472Z,929.75
2019-01-25T02:25:22.462Z,929.71
2019-01-25T02:26:22.433Z,929.69
2019-01-25T02:27:22.428Z,929.67
2019-01-25T02:28:22.415Z,929.67
2019-01-25T02:29:22.398Z,929.71
2019-01-25T02:30:22.405Z,929.70
2019-01-25T02:31:22.397Z,929.68
2019-01-25T02:32:22.362Z,929.70
2019-01-25T02:33:22.354Z,929.69
2019-01-25T02:34:22.347Z,929.70
2019-01-25T02:35:22.352Z,929.70
2019-01-25T02:36:22.321Z,929.73
2019-01-25T02:37:22.307Z,929.68
2019-01-25T02:38:22.307Z,929.74
2019-01-25T02:39:22.290Z,929.71
2019-01-25T02:40:22.292Z,929.69
2019-01-25T02:41:22.268Z,929.67
2019-01-25T02:42:22.261Z,929.72
2019-01-25T02:43:22.237Z,929.70
2019-01-25T02:44:22.238Z,929.70
2019-01-25T02:45:22.253Z,929.73
2019-01-25T02:46:22.214Z,929.74
2019-01-25T02:47:22.197Z,929.78
2019-01-25T02:48:22.188Z,929.75
2019-01-25T02:49:22.171Z,929.71
2019-01-25T02:50:22.157Z,929.73
2019-01-25T02:51:22.165Z,929.74
2019-01-25T02:52:22.136Z,929.75
2019-01-25T02:53:22.135Z,929.69
2019-01-25T02:54:22.111Z,929.70
2019-01-25T02:55:22.115Z,929.69
2019-01-25T02:56:22.104Z,929.69
2019-01-25T02:57:22.080Z,929.75
2019-01-25T02:58:22.065Z,929.75
2019-01-25T02:59:22.064Z,929.76
2019-01-25T03:00:22.042Z,929.77
2019-01-25T03:01:22.061Z,929.75
2019-01-25T03:02:22.028Z,929.74
2019-01-25T03:03:22.015Z,929.79
2019-01-25T03:04:21.997Z,929.77
2019-01-25T03:05:21.985Z,929.77
2019-01-25T03:06:21.990Z,929.80
2019-01-25T03:07:21.975Z,929.78
2019-01-25T03:08:21.952Z,929.80
2019-01-25T03:09:21.951Z,929.78
2019-01-25T03:10:28.595Z,929.84
2019-01-25T03:11:22.942Z,929.79
2019-01-25T03:12:21.914Z,929.81
2019-01-25T03:13:21.894Z,929.82
2019-01-25T03:14:21.886Z,929.82
2019-01-25T03:15:21.880Z,929.85
2019-01-25T03:16:21.911Z,929.81
2019-01-25T03:17:21.852Z,929.82
2019-01-25T03:18:21.844Z,929.82
2019-01-25T03:19:21.834Z,929.86
2019-01-25T03:20:21.866Z,929.84
2019-01-25T03:21:21.816Z,929.83
2019-01-25T03:22:21.792Z,929.87
2019-01-25T03:23:21.787Z,929.86
2019-01-25T03:24:21.769Z,929.87
2019-01-25T03:25:21.756Z,929.90
2019-01-25T03:26:21.764Z,929.88
2019-01-25T03:27:21.734Z,929.88
2019-01-25T03:28:21.729Z,929.91
2019-01-25T03:29:21.728Z,929.89
2019-01-25T03:30:21.715Z,929.88
2019-01-25T03:31:21.712Z,929.91
2019-01-25T03:32:21.692Z,929.91
2019-01-25T03:33:21.668Z,929.89
2019-01-25T03:34:21.655Z,929.91
2019-01-25T03:35:21.666Z,929.89
2019-01-25T03:36:21.654Z,929.90
2019-01-25T03:37:21.620Z,929.89
2019-01-25T03:38:21.608Z,929.92
2019-01-25T03:39:21.599Z,929.94
2019-01-25T03:40:21.588Z,929.90
2019-01-25T03:41:21.629Z,929.98
2019-01-25T03:42:21.564Z,930.00
2019-01-25T03:43:21.551Z,929.99
2019-01-25T03:44:21.546Z,930.00
2019-01-25T03:45:21.529Z,930.01
2019-01-25T03:46:21.531Z,930.04
2019-01-25T03:47:21.528Z,930.01
2019-01-25T03:48:21.505Z,930.02
2019-01-25T03:49:21.483Z,930.02
2019-01-25T03:50:21.479Z,929.99
2019-01-25T03:51:21.469Z,929.93
2019-01-25T03:52:21.463Z,930.00
2019-01-25T03:53:21.445Z,930.03
2019-01-25T03:54:21.430Z,930.02
2019-01-25T03:55:21.427Z,930.04
2019-01-25T03:56:21.411Z,930.06
2019-01-25T03:57:21.413Z,930.07
2019-01-25T03:58:21.379Z,930.06
2019-01-25T03:59:21.381Z,930.04
2019-01-25T04:00:21.392Z,930.00
2019-01-25T04:01:21.346Z,930.06
2019-01-25T04:02:21.365Z,930.06
2019-01-25T04:03:21.324Z,930.04
2019-01-25T04:04:21.312Z,930.10
2019-01-25T04:05:21.302Z,930.10
2019-01-25T04:06:21.295Z,930.12
2019-01-25T04:07:21.320Z,930.09
2019-01-25T04:08:21.275Z,930.06
2019-01-25T04:09:21.263Z,930.09
2019-01-25T04:10:21.249Z,930.06
2019-01-25T04:11:21.237Z,930.09
2019-01-25T04:12:21.245Z,930.10
2019-01-25T04:13:21.213Z,930.09
2019-01-25T04:14:21.197Z,930.11
2019-01-25T04:15:21.201Z,930.14
2019-01-25T04:16:21.175Z,930.11
2019-01-25T04:17:21.178Z,930.13
2019-01-25T04:18:21.152Z,930.16
2019-01-25T04:19:21.141Z,930.17
2019-01-25T04:20:21.135Z,930.17
2019-01-25T04:21:21.118Z,930.16
2019-01-25T04:22:21.134Z,930.13
2019-01-25T04:23:21.099Z,930.11
2019-01-25T04:24:21.083Z,930.11
2019-01-25T04:25:21.079Z,930.11
2019-01-25T04:26:21.065Z,930.11
2019-01-25T04:27:21.065Z,930.14
2019-01-25T04:28:21.047Z,930.13
2019-01-25T04:29:21.029Z,930.15
2019-01-25T04:30:21.018Z,930.17
2019-01-25T04:31:21.029Z,930.14
2019-01-25T04:32:21.019Z,930.18
2019-01-25T04:33:20.991Z,930.19
2019-01-25T04:34:20.970Z,930.20
2019-01-25T04:35:20.972Z,930.27
2019-01-25T04:36:20.947Z,930.25
2019-01-25T04:37:21.231Z,930.29
2019-01-25T04:38:20.925Z,930.27
2019-01-25T04:39:20.914Z,930.23
2019-01-25T04:40:20.918Z,930.26
2019-01-25T04:41:20.900Z,930.21
2019-01-25T04:42:20.879Z,930.24
2019-01-25T04:43:20.884Z,930.21
2019-01-25T04:44:20.854Z,930.25
2019-01-25T04:45:20.845Z,930.21
2019-01-25T04:46:20.841Z,930.22
2019-01-25T04:47:20.820Z,930.25
2019-01-25T04:48:20.827Z,930.27
2019-01-25T04:49:20.796Z,930.23
2019-01-25T04:50:20.790Z,930.22
2019-01-25T04:51:20.790Z,930.22
2019-01-25T04:52:20.765Z,930.26
2019-01-25T04:53:20.772Z,930.22
2019-01-25T04:54:20.757Z,930.23
2019-01-25T04:55:20.730Z,930.24
2019-01-25T04:56:20.724Z,930.27
2019-01-25T04:57:20.704Z,930.27
2019-01-25T04:58:20.709Z,930.25
2019-01-25T04:59:20.696Z,930.26
2019-01-25T05:00:20.675Z,930.27
2019-01-25T05:01:20.658Z,930.23
2019-01-25T05:02:20.649Z,930.18
2019-01-25T05:03:20.656Z,930.23
2019-01-25T05:04:20.627Z,930.24
2019-01-25T05:05:20.624Z,930.25
2019-01-25T05:06:20.614Z,930.23
2019-01-25T05:07:20.598Z,930.24
2019-01-25T05:08:20.599Z,930.27
2019-01-25T05:09:20.575Z,930.28
2019-01-25T05:10:20.556Z,930.30
2019-01-25T05:11:20.553Z,930.29
2019-01-25T05:12:20.535Z,930.31
2019-01-25T05:13:20.539Z,930.33
2019-01-25T05:14:20.529Z,930.33
2019-01-25T05:15:20.508Z,930.31
2019-01-25T05:16:20.493Z,930.31
2019-01-25T05:17:20.497Z,930.31
2019-01-25T05:18:20.493Z,930.37
2019-01-25T05:19:20.461Z,930.33
2019-01-25T05:20:20.448Z,930.34
2019-01-25T05:21:20.433Z,930.33
2019-01-25T05:22:20.438Z,930.38
2019-01-25T05:23:20.445Z,930.38
2019-01-25T05:24:20.397Z,930.35
2019-01-25T05:25:20.398Z,930.38
2019-01-25T05:26:20.379Z,930.38
2019-01-25T05:27:20.366Z,930.37
2019-01-25T05:28:20.353Z,930.38
2019-01-25T05:29:20.539Z,930.37
2019-01-25T05:30:20.327Z,930.35
2019-01-25T05:31:20.320Z,930.35
2019-01-25T05:32:20.324Z,930.35
2019-01-25T05:33:20.303Z,930.35
2019-01-25T05:34:20.302Z,930.32
2019-01-25T05:35:20.290Z,930.36
2019-01-25T05:36:20.268Z,930.38
2019-01-25T05:37:20.248Z,930.42
2019-01-25T05:38:20.259Z,930.44
2019-01-25T05:39:20.238Z,930.39
2019-01-25T05:40:20.214Z,930.37
2019-01-25T05:41:27.836Z,930.39
2019-01-25T05:42:21.199Z,930.40
2019-01-25T05:43:20.230Z,930.38
2019-01-25T05:44:20.185Z,930.39
2019-01-25T05:45:20.165Z,930.43
2019-01-25T05:46:20.147Z,930.39
2019-01-25T05:47:20.133Z,930.39
2019-01-25T05:48:20.160Z,930.35
2019-01-25T05:49:20.155Z,930.39
2019-01-25T05:50:20.099Z,930.38
2019-01-25T05:51:20.114Z,930.41
2019-01-25T05:52:20.076Z,930.39
2019-01-25T05:53:20.084Z,930.39
2019-01-25T05:54:20.076Z,930.38
2019-01-25T05:55:20.055Z,930.41
2019-01-25T05:56:20.029Z,930.41
2019-01-25T05:57:20.025Z,930.37
2019-01-25T05:58:20.016Z,930.36
2019-01-25T05:59:20.010Z,930.34
2019-01-25T06:00:19.987Z,930.39
2019-01-25T06:01:19.980Z,930.36
2019-01-25T06:02:19.962Z,930.38
2019-01-25T06:03:19.962Z,930.43
2019-01-25T06:04:19.964Z,930.43
2019-01-25T06:05:19.933Z,930.41
2019-01-25T06:06:19.919Z,930.43
2019-01-25T06:07:19.903Z,930.39
2019-01-25T06:08:19.894Z,930.40
2019-01-25T06:09:19.900Z,930.44
2019-01-25T06:10:19.881Z,930.41
2019-01-25T06:11:19.868Z,930.42
2019-01-25T06:12:19.850Z,930.42
2019-01-25T06:13:19.837Z,930.47
2019-01-25T06:14:19.846Z,930.44
2019-01-25T06:15:19.823Z,930.48
2019-01-25T06:16:19.800Z,930.53
2019-01-25T06:17:19.798Z,930.51
2019-01-25T06:18:19.811Z,930.50
2019-01-25T06:19:19.821Z,930.51
2019-01-25T06:20:19.758Z,930.53
2019-01-25T06:21:19.743Z,930.53
2019-01-25T06:22:19.731Z,930.55
2019-01-25T06:23:19.730Z,930.58
2019-01-25T06:24:19.713Z,930.60
2019-01-25T06:25:19.719Z,930.56
2019-01-25T06:26:19.686Z,930.58
2019-01-25T06:27:19.676Z,930.60
2019-01-25T06:28:19.668Z,930.61
2019-01-25T06:29:19.694Z,930.63
2019-01-25T06:30:19.656Z,930.57
2019-01-25T06:31:19.632Z,930.61
2019-01-25T06:32:19.624Z,930.61
2019-01-25T06:33:19.609Z,930.60
2019-01-25T06:34:19.594Z,930.57
2019-01-25T06:35:19.609Z,930.62
2019-01-25T06:36:19.575Z,930.65
2019-01-25T06:37:19.562Z,930.61
2019-01-25T06:38:19.549Z,930.64
2019-01-25T06:39:19.537Z,930.65
2019-01-25T06:40:19.542Z,930.66
2019-01-25T06:41:19.525Z,930.68
2019-01-25T06:42:19.512Z,930.69
2019-01-25T06:43:19.499Z,930.72
2019-01-25T06:44:19.482Z,930.71
2019-01-25T06:45:19.486Z,930.71
2019-01-25T06:46:19.458Z,930.77
2019-01-25T06:47:19.458Z,930.71
2019-01-25T06:48:19.434Z,930.71
2019-01-25T06:49:19.424Z,930.68
2019-01-25T06:50:19.435Z,930.71
2019-01-25T06:51:19.401Z,930.72
2019-01-25T06:52:19.390Z,930.67
2019-01-25T06:53:19.393Z,930.74
2019-01-25T06:54:19.368Z,930.73
2019-01-25T06:55:19.395Z,930.75
2019-01-25T06:56:19.351Z,930.79
2019-01-25T06:57:19.342Z,930.79
2019-01-25T06:58:19.323Z,930.81
2019-01-25T06:59:19.323Z,930.82
2019-01-25T07:00:19.305Z,930.84
2019-01-25T07:01:19.306Z,930.82
2019-01-25T07:02:19.275Z,930.83
2019-01-25T07:03:19.277Z,930.80
2019-01-25T07:04:19.255Z,930.82
2019-01-25T07:05:19.274Z,930.83
2019-01-25T07:06:19.247Z,930.84
2019-01-25T07:07:19.226Z,930.85
2019-01-25T07:08:19.207Z,930.87
2019-01-25T07:09:19.202Z,930.91
2019-01-25T07:10:19.186Z,930.91
2019-01-25T07:11:19.291Z,930.89
2019-01-25T07:12:19.161Z,930.89
2019-01-25T07:13:19.151Z,930.92
2019-01-25T07:14:19.145Z,930.90
2019-01-25T07:15:19.136Z,930.93
2019-01-25T07:16:19.131Z,930.93
2019-01-25T07:17:19.112Z,930.95
2019-01-25T07:18:19.103Z,930.92
2019-01-25T07:19:19.088Z,930.97
2019-01-25T07:20:19.072Z,930.95
2019-01-25T07:21:19.381Z,930.96
2019-01-25T07:22:19.062Z,930.91
2019-01-25T07:23:19.046Z,930.92
2019-01-25T07:24:19.041Z,930.94
2019-01-25T07:25:19.023Z,930.89
2019-01-25T07:26:19.005Z,930.92
2019-01-25T07:27:19.007Z,930.93
2019-01-25T07:28:18.987Z,930.89
2019-01-25T07:29:18.981Z,930.92
2019-01-25T07:30:18.962Z,930.92
2019-01-25T07:31:18.953Z,931.00
2019-01-25T07:32:18.950Z,931.00
2019-01-25T07:33:18.939Z,931.02
2019-01-25T07:34:18.911Z,930.98
2019-01-25T07:35:18.899Z,931.02
2019-01-25T07:36:18.895Z,931.02
2019-01-25T07:37:18.910Z,931.04
2019-01-25T07:38:18.880Z,931.04
2019-01-25T07:39:18.872Z,931.06
2019-01-25T07:40:18.843Z,931.07
2019-01-25T07:41:18.831Z,931.10
2019-01-25T07:42:18.845Z,931.14
2019-01-25T07:43:18.809Z,931.13
2019-01-25T07:44:18.803Z,931.10
2019-01-25T07:45:18.797Z,931.12
2019-01-25T07:46:18.775Z,931.12
2019-01-25T07:47:18.815Z,931.15
2019-01-25T07:48:18.777Z,931.15
2019-01-25T07:49:18.739Z,931.21
2019-01-25T07:50:18.729Z,931.22
2019-01-25T07:51:18.736Z,931.25
2019-01-25T07:52:18.721Z,931.29
2019-01-25T07:53:18.693Z,931.29
2019-01-25T07:54:18.711Z,931.33
2019-01-25T07:55:18.707Z,931.33
2019-01-25T07:56:18.667Z,931.36
2019-01-25T07:57:18.680Z,931.38
2019-01-25T07:58:18.700Z,931.34
2019-01-25T07:59:18.629Z,931.35
2019-01-25T08:00:18.677Z,931.35
2019-01-25T08:01:18.621Z,931.33
2019-01-25T08:02:18.597Z,931.35
2019-01-25T08:03:18.645Z,931.38
2019-01-25T08:04:18.579Z,931.38
2019-01-25T08:05:18.564Z,931.42
2019-01-25T08:06:18.547Z,931.38
2019-01-25T08:07:18.539Z,931.39
2019-01-25T08:08:18.546Z,931.39
2019-01-25T08:09:18.589Z,931.45
2019-01-25T08:10:18.513Z,931.43
2019-01-25T08:11:18.518Z,931.43
2019-01-25T08:12:18.494Z,931.39
2019-01-25T08:13:18.482Z,931.42
2019-01-25T08:14:18.457Z,931.41
2019-01-25T08:15:18.498Z,931.38
2019-01-25T08:16:18.438Z,931.43
2019-01-25T08:17:18.439Z,931.44
2019-01-25T08:18:18.445Z,931.45
2019-01-25T08:19:18.410Z,931.42
2019-01-25T08:20:18.612Z,931.40
2019-01-25T08:21:18.389Z,931.39
2019-01-25T08:22:18.434Z,931.37
2019-01-25T08:23:18.425Z,931.39
2019-01-25T08:24:18.423Z,931.39
2019-01-25T08:25:18.386Z,931.41
2019-01-25T08:26:18.330Z,931.44
2019-01-25T08:27:18.357Z,931.42
2019-01-25T08:28:18.318Z,931.43
2019-01-25T08:29:18.335Z,931.49
2019-01-25T08:30:18.319Z,931.48
2019-01-25T08:31:18.275Z,931.47
2019-01-25T08:32:18.270Z,931.52
2019-01-25T08:33:18.262Z,931.45
2019-01-25T08:34:18.246Z,931.49
2019-01-25T08:35:18.352Z,931.52
2019-01-25T08:36:18.217Z,931.54
2019-01-25T08:37:18.209Z,931.54
2019-01-25T08:38:18.229Z,931.55
2019-01-25T08:39:18.198Z,931.53
2019-01-25T08:40:18.188Z,931.62
2019-01-25T08:41:18.178Z,931.59
2019-01-25T08:42:18.152Z,931.63
2019-01-25T08:43:18.165Z,931.65
2019-01-25T08:44:18.138Z,931.68
2019-01-25T08:45:18.284Z,931.68
2019-01-25T08:46:18.105Z,931.75
2019-01-25T08:47:18.104Z,931.76
2019-01-25T08:48:18.112Z,931.82
2019-01-25T08:49:18.067Z,931.84
2019-01-25T08:50:18.056Z,931.85
2019-01-25T08:51:18.080Z,931.89
2019-01-25T08:52:18.041Z,931.90
2019-01-25T08:53:18.048Z,931.94
2019-01-25T08:54:18.049Z,931.89
2019-01-25T08:55:18.033Z,931.93
2019-01-25T08:56:17.990Z,931.88
2019-01-25T08:57:18.034Z,931.89
2019-01-25T08:58:18.021Z,931.91
2019-01-25T08:59:17.973Z,931.91
2019-01-25T09:00:17.946Z,931.89
2019-01-25T09:01:17.941Z,931.90
2019-01-25T09:02:17.925Z,931.89
2019-01-25T09:03:17.930Z,931.87
2019-01-25T09:04:17.900Z,931.90
2019-01-25T09:05:17.905Z,931.89
2019-01-25T09:06:17.898Z,931.85
2019-01-25T09:07:17.867Z,931.88
2019-01-25T09:08:17.870Z,931.90
2019-01-25T09:09:17.847Z,931.91
2019-01-25T09:10:17.837Z,931.92
2019-01-25T09:11:17.834Z,931.99
2019-01-25T09:12:23.250Z,931.95
2019-01-25T09:13:18.812Z,932.03
2019-01-25T09:14:17.787Z,931.98
2019-01-25T09:15:17.778Z,932.05
2019-01-25T09:16:17.768Z,932.04
2019-01-25T09:17:17.765Z,932.05
2019-01-25T09:18:17.768Z,932.06
2019-01-25T09:19:17.733Z,932.13
2019-01-25T09:20:17.727Z,932.09
2019-01-25T09:21:17.710Z,932.10
2019-01-25T09:22:17.704Z,932.10
2019-01-25T09:23:17.735Z,932.09
2019-01-25T09:24:17.682Z,932.20
2019-01-25T09:25:17.666Z,932.13
2019-01-25T09:26:17.653Z,932.09
2019-01-25T09:27:17.643Z,932.15
2019-01-25T09:28:17.636Z,932.15
2019-01-25T09:29:17.667Z,932.17
2019-01-25T09:30:17.608Z,932.17
2019-01-25T09:31:17.596Z,932.18
2019-01-25T09:32:17.592Z,932.23
2019-01-25T09:33:17.576Z,932.23
2019-01-25T09:34:17.580Z,932.26
2019-01-25T09:35:17.569Z,932.28
2019-01-25T09:36:17.543Z,932.35
2019-01-25T09:37:17.532Z,932.29
2019-01-25T09:38:17.525Z,932.33
2019-01-25T09:39:17.530Z,932.33
2019-01-25T09:40:17.504Z,932.38
2019-01-25T09:41:17.494Z,932.38
2019-01-25T09:42:17.486Z,932.34
2019-01-25T09:43:17.467Z,932.35
2019-01-25T09:44:17.638Z,932.31
2019-01-25T09:45:17.444Z,932.34
2019-01-25T09:46:17.429Z,932.40
2019-01-25T09:47:17.428Z,932.43
2019-01-25T09:48:17.414Z,932.39
2019-01-25T09:49:17.440Z,932.39
2019-01-25T09:50:17.388Z,932.29
2019-01-25T09:51:17.375Z,932.30
2019-01-25T09:52:17.363Z,932.30
2019-01-25T09:53:17.360Z,932.31
2019-01-25T09:54:17.343Z,932.34
2019-01-25T09:55:17.345Z,932.28
2019-01-25T09:56:17.326Z,932.34
2019-01-25T09:57:17.311Z,932.30
2019-01-25T09:58:17.297Z,932.32
2019-01-25T09:59:17.297Z,932.34
2019-01-25T10:00:17.290Z,932.32
2019-01-25T10:01:17.264Z,932.32
2019-01-25T10:02:17.254Z,932.34
2019-01-25T10:03:17.241Z,932.32
2019-01-25T10:04:17.235Z,932.30
2019-01-25T10:05:17.260Z,932.30
2019-01-25T10:06:17.211Z,932.33
2019-01-25T10:07:17.210Z,932.34
2019-01-25T10:08:17.190Z,932.29
2019-01-25T10:09:17.182Z,932.31
2019-01-25T10:10:17.343Z,932.32
2019-01-25T10:11:17.160Z,932.30
2019-01-25T10:12:17.141Z,932.33
2019-01-25T10:13:17.130Z,932.30
2019-01-25T10:14:17.125Z,932.32
2019-01-25T10:15:17.114Z,932.32
2019-01-25T10:16:17.120Z,932.34
2019-01-25T10:17:17.093Z,932.35
2019-01-25T10:18:17.077Z,932.37
2019-01-25T10:19:17.072Z,932.38
2019-01-25T10:20:17.061Z,932.39
2019-01-25T10:21:17.063Z,932.39
2019-01-25T10:22:17.030Z,932.42
2019-01-25T10:23:17.035Z,932.42
2019-01-25T10:24:17.008Z,932.38
2019-01-25T10:25:17.007Z,932.41
2019-01-25T10:26:17.009Z,932.44
2019-01-25T10:27:16.975Z,932.44
2019-01-25T10:28:16.980Z,932.47
2019-01-25T10:29:16.962Z,932.42
2019-01-25T10:30:16.943Z,932.51
2019-01-25T10:31:16.945Z,932.54
2019-01-25T10:32:16.928Z,932.52
2019-01-25T10:33:16.908Z,932.51
2019-01-25T10:34:16.903Z,932.46
2019-01-25T10:35:16.892Z,932.53
2019-01-25T10:36:16.892Z,932.52
2019-01-25T10:37:16.872Z,932.50
2019-01-25T10:38:16.852Z,932.51
2019-01-25T10:39:16.841Z,932.48
2019-01-25T10:40:16.856Z,932.47
2019-01-25T10:41:16.862Z,932.44
2019-01-25T10:42:16.807Z,932.43
2019-01-25T10:43:16.799Z,932.46
2019-01-25T10:44:16.791Z,932.41
2019-01-25T10:45:16.777Z,932.41
2019-01-25T10:46:16.778Z,932.45
2019-01-25T10:47:16.766Z,932.44
2019-01-25T10:48:16.740Z,932.45
2019-01-25T10:49:16.730Z,932.44
2019-01-25T10:50:16.722Z,932.41
2019-01-25T10:51:16.750Z,932.37
2019-01-25T10:52:16.698Z,932.37
2019-01-25T10:53:16.706Z,932.37
2019-01-25T10:54:16.674Z,932.36
2019-01-25T10:55:16.664Z,932.33
2019-01-25T10:56:16.653Z,932.36
2019-01-25T10:57:16.658Z,932.34
2019-01-25T10:58:16.638Z,932.32
2019-01-25T10:59:16.642Z,932.36
2019-01-25T11:00:16.613Z,932.24
2019-01-25T11:01:16.606Z,932.23
2019-01-25T11:02:16.604Z,932.27
2019-01-25T11:03:16.588Z,932.30
2019-01-25T11:04:16.574Z,932.28
2019-01-25T11:05:16.570Z,932.36
2019-01-25T11:06:16.548Z,932.29
2019-01-25T11:07:16.559Z,932.26
2019-01-25T11:08:16.525Z,932.31
2019-01-25T11:09:16.514Z,932.29
2019-01-25T11:10:16.502Z,932.28
2019-01-25T11:11:16.515Z,932.31
2019-01-25T11:12:16.515Z,932.28
2019-01-25T11:13:16.470Z,932.26
2019-01-25T11:14:16.473Z,932.20
2019-01-25T11:15:16.449Z,932.19
2019-01-25T11:16:16.436Z,932.20
2019-01-25T11:17:16.435Z,932.18
2019-01-25T11:18:16.435Z,932.20
2019-01-25T11:19:16.402Z,932.22
2019-01-25T11:20:16.396Z,932.23
2019-01-25T11:21:16.384Z,932.22
2019-01-25T11:22:16.369Z,932.19
2019-01-25T11:23:16.384Z,932.19
2019-01-25T11:24:16.348Z,932.12
2019-01-25T11:25:16.335Z,932.15
2019-01-25T11:26:16.324Z,932.14
2019-01-25T11:27:16.331Z,932.18
2019-01-25T11:28:16.320Z,932.15
2019-01-25T11:29:16.298Z,932.19
2019-01-25T11:30:16.285Z,932.19
2019-01-25T11:31:16.269Z,932.21
2019-01-25T11:32:16.259Z,932.23
2019-01-25T11:33:16.271Z,932.21
2019-01-25T11:34:16.238Z,932.15
2019-01-25T11:35:16.249Z,932.21
2019-01-25T11:36:16.220Z,932.23
2019-01-25T11:37:16.204Z,932.18
2019-01-25T11:38:16.217Z,932.15
2019-01-25T11:39:16.186Z,932.15
2019-01-25T11:40:16.167Z,932.08
2019-01-25T11:41:16.163Z,932.08
2019-01-25T11:42:16.151Z,932.09
2019-01-25T11:43:16.180Z,932.10
2019-01-25T11:44:16.133Z,932.09
2019-01-25T11:45:16.112Z,932.08
2019-01-25T11:46:16.106Z,932.07
2019-01-25T11:47:16.102Z,932.10
2019-01-25T11:48:16.086Z,932.11
2019-01-25T11:49:16.081Z,932.07
2019-01-25T11:50:16.055Z,932.01
2019-01-25T11:51:16.045Z,932.01
2019-01-25T11:52:16.034Z,932.08
2019-01-25T11:53:16.027Z,932.10
2019-01-25T11:54:16.027Z,932.12
2019-01-25T11:55:15.999Z,932.20
2019-01-25T11:56:15.988Z,932.09
2019-01-25T11:57:15.977Z,932.21
2019-01-25T11:58:15.964Z,932.18
2019-01-25T11:59:15.991Z,932.19
2019-01-25T12:00:15.945Z,932.16
2019-01-25T12:01:15.938Z,932.11
2019-01-25T12:02:20.917Z,932.18
2019-01-25T12:03:16.911Z,932.15
2019-01-25T12:04:15.914Z,932.11
2019-01-25T12:05:15.897Z,932.15
2019-01-25T12:06:15.876Z,932.12
2019-01-25T12:07:15.872Z,932.15
2019-01-25T12:08:15.855Z,932.11
2019-01-25T12:09:15.868Z,932.20
2019-01-25T12:10:15.836Z,932.16
2019-01-25T12:11:15.827Z,932.14
2019-01-25T12:12:15.812Z,932.10
2019-01-25T12:13:16.482Z,932.18
2019-01-25T12:14:15.806Z,932.17
2019-01-25T12:15:15.786Z,932.15
2019-01-25T12:16:15.769Z,932.20
2019-01-25T12:17:15.765Z,932.19
2019-01-25T12:18:15.789Z,932.19
2019-01-25T12:19:15.776Z,932.12
2019-01-25T12:20:15.723Z,932.08
2019-01-25T12:21:15.716Z,932.07
2019-01-25T12:22:15.704Z,932.09
2019-01-25T12:23:15.707Z,932.05
2019-01-25T12:24:15.689Z,932.06
2019-01-25T12:25:15.685Z,932.10
2019-01-25T12:26:15.677Z,932.07
2019-01-25T12:27:15.652Z,932.05
2019-01-25T12:28:15.897Z,932.06